Deep Seas — ZCPR4 — position and weather

sailwx.info

Track history (hours):
 
Tides and Currents Weather Stations Pressure Air Temp Water Temp Dewpoint Dewpoint Depression Visibility Wind Speed Wind Dir Waves Ship Positions

Deep Seas

Last reported at 2015-Jul-07 04:31 UTC. Time now 2015-Jul-07 04:38 UTC.
Position N 31°19' E 121°42'.

Length 225 m; draft 11.8 m.

Type: Cargo ship. MMSI: 319138000.

Date/timePositionNaut miles runAvg speedWind from/ knotsBaromVisibWave heightAir tempDewpointWater temp
2015-Jul-07 04:31N 31°19' E 121°42'0 0.0
2015-Jul-07 03:31N 31°19' E 121°42'0 0.0
2015-Jul-07 02:31N 31°19' E 121°42'0 0.0
2015-Jul-07 01:31N 31°19' E 121°42'0 0.0
2015-Jul-07 00:31N 31°19' E 121°42'0 0.0
2015-Jul-06 23:31N 31°19' E 121°42'0 0.0
2015-Jul-06 22:31N 31°19' E 121°42'0 0.0
2015-Jul-06 21:31N 31°19' E 121°42'0 0.0
2015-Jul-06 20:31N 31°19' E 121°42'0 0.0
2015-Jul-06 19:31N 31°19' E 121°42'0 0.0
2015-Jul-06 18:31N 31°19' E 121°42'0 0.0
2015-Jul-06 17:31N 31°19' E 121°42'0 0.0
2015-Jul-06 16:31N 31°19' E 121°42'0 0.0
2015-Jul-06 15:31N 31°19' E 121°42'0 0.0
2015-Jul-06 14:31N 31°19' E 121°42'0 0.0
2015-Jul-06 13:31N 31°19' E 121°42'0 0.0
2015-Jul-06 12:25N 31°19' E 121°42'0 0.0
2015-Jul-06 11:31N 31°19' E 121°42'0 0.0
2015-Jul-06 10:31N 31°19' E 121°42'0 0.0
2015-Jul-06 09:31N 31°19' E 121°42'0 0.0
2015-Jul-06 08:31N 31°19' E 121°42'0 0.0
2015-Jul-06 07:28N 31°19' E 121°42'0 0.2
2015-Jul-06 06:33N 31°19' E 121°42'6 6.5
2015-Jul-06 05:33N 31°17' E 121°49'10 9.7
2015-Jul-06 04:34N 31°15' E 121°60'1010.3
2015-Jul-06 03:34N 31°11' E 122°11'1111.1
2015-Jul-06 02:33N 31°07' E 122°23'18 5.4
2015-Jul-05 23:10N 30°51' E 122°33'5 7.3
2015-Jul-05 22:32N 30°47' E 122°36'0 0.0
2015-Jul-04 00:25N 30°46' E 122°36'0 0.0
2015-Jul-03 23:19N 30°46' E 122°36'0 0.0
2015-Jul-03 22:22N 30°46' E 122°36'0 0.1
2015-Jul-03 21:31N 30°46' E 122°36'0 0.0
2015-Jul-03 20:31N 30°46' E 122°36'0 0.1
2015-Jul-03 19:31N 30°46' E 122°36'0 0.0
2015-Jul-03 04:13N 30°47' E 122°36'0 0.0
2015-Jul-03 01:13N 30°46' E 122°36'0 0.2
2015-Jul-03 00:10N 30°46' E 122°36'0 0.2
2015-Jul-02 23:31N 30°46' E 122°36'0 0.1
2015-Jul-02 22:31N 30°46' E 122°36'2 2.0
2015-Jul-02 21:33N 30°47' E 122°38'1 0.6
2015-Jul-02 20:32N 30°48' E 122°38'0 0.1
2015-Jul-02 19:26N 30°48' E 122°38'0 0.1
2015-Jul-02 18:23N 30°48' E 122°38'0 0.1
2015-Jul-02 17:32N 30°48' E 122°38'0 0.2
2015-Jul-02 16:32N 30°48' E 122°38'0 0.0
2015-Jul-02 15:17N 30°48' E 122°38'0 0.0
2015-Jul-02 14:29N 30°48' E 122°38'0 0.1
2015-Jul-02 13:32N 30°48' E 122°38'0 0.0
2015-Jul-02 12:26N 30°48' E 122°38'0 0.1
2015-Jul-02 11:33N 30°48' E 122°38'2 1.7
2015-Jul-02 10:33N 30°47' E 122°36'1 0.8
2015-Jul-02 09:28N 30°47' E 122°36'0 0.0
2015-Jul-02 08:31N 30°47' E 122°36'0 0.0
2015-Jul-02 07:28N 30°47' E 122°36'0 0.1
2015-Jul-02 02:31N 30°47' E 122°36'0 0.1
2015-Jul-02 00:28N 30°47' E 122°36'0 0.2
2015-Jul-01 23:04N 30°47' E 122°36'0 0.2
2015-Jul-01 22:25N 30°47' E 122°36'0 0.0
2015-Jul-01 19:31N 30°47' E 122°36'0 0.0
2015-Jul-01 18:31N 30°47' E 122°36'0 0.1
2015-Jul-01 17:31N 30°47' E 122°36'0 0.2
2015-Jul-01 16:31N 30°47' E 122°36'0 0.1
2015-Jul-01 15:31N 30°47' E 122°36'0 0.0
2015-Jul-01 14:07N 30°47' E 122°36'0 0.1
2015-Jul-01 10:28N 30°47' E 122°36'0 0.1
2015-Jul-01 07:15N 30°46' E 122°36'0 0.0
2015-Jun-30 17:21N 30°47' E 122°36'0 0.1
2015-Jun-30 15:27N 30°47' E 122°36'0 0.1
2015-Jun-30 14:27N 30°47' E 122°36'0 0.0
2015-Jun-29 20:31N 30°47' E 122°36'  
Track history (hours):
 
Tides and Currents Weather Stations Pressure Air Temp Water Temp Dewpoint Dewpoint Depression Visibility Wind Speed Wind Dir Waves Ship Positions

Deep Seas

Last reported at 2015-Jul-07 04:31 UTC. Time now 2015-Jul-07 04:38 UTC.
Position N 31°19' E 121°42'.

Length 225 m; draft 11.8 m.

Type: Cargo ship. MMSI: 319138000.

Date/timePositionNaut miles runAvg speedWind from/ knotsBaromVisibWave heightAir tempDewpointWater temp
2015-Jul-07 04:31N 31°19' E 121°42'0 0.0
2015-Jul-07 03:31N 31°19' E 121°42'0 0.0
2015-Jul-07 02:31N 31°19' E 121°42'0 0.0
2015-Jul-07 01:31N 31°19' E 121°42'0 0.0
2015-Jul-07 00:31N 31°19' E 121°42'0 0.0
2015-Jul-06 23:31N 31°19' E 121°42'0 0.0
2015-Jul-06 22:31N 31°19' E 121°42'0 0.0
2015-Jul-06 21:31N 31°19' E 121°42'0 0.0
2015-Jul-06 20:31N 31°19' E 121°42'0 0.0
2015-Jul-06 19:31N 31°19' E 121°42'0 0.0
2015-Jul-06 18:31N 31°19' E 121°42'0 0.0
2015-Jul-06 17:31N 31°19' E 121°42'0 0.0
2015-Jul-06 16:31N 31°19' E 121°42'0 0.0
2015-Jul-06 15:31N 31°19' E 121°42'0 0.0
2015-Jul-06 14:31N 31°19' E 121°42'0 0.0
2015-Jul-06 13:31N 31°19' E 121°42'0 0.0
2015-Jul-06 12:25N 31°19' E 121°42'0 0.0
2015-Jul-06 11:31N 31°19' E 121°42'0 0.0
2015-Jul-06 10:31N 31°19' E 121°42'0 0.0
2015-Jul-06 09:31N 31°19' E 121°42'0 0.0
2015-Jul-06 08:31N 31°19' E 121°42'0 0.0
2015-Jul-06 07:28N 31°19' E 121°42'0 0.2
2015-Jul-06 06:33N 31°19' E 121°42'6 6.5
2015-Jul-06 05:33N 31°17' E 121°49'10 9.7
2015-Jul-06 04:34N 31°15' E 121°60'1010.3
2015-Jul-06 03:34N 31°11' E 122°11'1111.1
2015-Jul-06 02:33N 31°07' E 122°23'18 5.4
2015-Jul-05 23:10N 30°51' E 122°33'5 7.3
2015-Jul-05 22:32N 30°47' E 122°36'0 0.0
2015-Jul-04 00:25N 30°46' E 122°36'0 0.0
2015-Jul-03 23:19N 30°46' E 122°36'0 0.0
2015-Jul-03 22:22N 30°46' E 122°36'0 0.1
2015-Jul-03 21:31N 30°46' E 122°36'0 0.0
2015-Jul-03 20:31N 30°46' E 122°36'0 0.1
2015-Jul-03 19:31N 30°46' E 122°36'0 0.0
2015-Jul-03 04:13N 30°47' E 122°36'0 0.0
2015-Jul-03 01:13N 30°46' E 122°36'0 0.2
2015-Jul-03 00:10N 30°46' E 122°36'0 0.2
2015-Jul-02 23:31N 30°46' E 122°36'0 0.1
2015-Jul-02 22:31N 30°46' E 122°36'2 2.0
2015-Jul-02 21:33N 30°47' E 122°38'1 0.6
2015-Jul-02 20:32N 30°48' E 122°38'0 0.1
2015-Jul-02 19:26N 30°48' E 122°38'0 0.1
2015-Jul-02 18:23N 30°48' E 122°38'0 0.1
2015-Jul-02 17:32N 30°48' E 122°38'0 0.2
2015-Jul-02 16:32N 30°48' E 122°38'0 0.0
2015-Jul-02 15:17N 30°48' E 122°38'0 0.0
2015-Jul-02 14:29N 30°48' E 122°38'0 0.1
2015-Jul-02 13:32N 30°48' E 122°38'0 0.0
2015-Jul-02 12:26N 30°48' E 122°38'0 0.1
2015-Jul-02 11:33N 30°48' E 122°38'2 1.7
2015-Jul-02 10:33N 30°47' E 122°36'1 0.8
2015-Jul-02 09:28N 30°47' E 122°36'0 0.0
2015-Jul-02 08:31N 30°47' E 122°36'0 0.0
2015-Jul-02 07:28N 30°47' E 122°36'0 0.1
2015-Jul-02 02:31N 30°47' E 122°36'0 0.1
2015-Jul-02 00:28N 30°47' E 122°36'0 0.2
2015-Jul-01 23:04N 30°47' E 122°36'0 0.2
2015-Jul-01 22:25N 30°47' E 122°36'0 0.0
2015-Jul-01 19:31N 30°47' E 122°36'0 0.0
2015-Jul-01 18:31N 30°47' E 122°36'0 0.1
2015-Jul-01 17:31N 30°47' E 122°36'0 0.2
2015-Jul-01 16:31N 30°47' E 122°36'0 0.1
2015-Jul-01 15:31N 30°47' E 122°36'0 0.0
2015-Jul-01 14:07N 30°47' E 122°36'0 0.1
2015-Jul-01 10:28N 30°47' E 122°36'0 0.1
2015-Jul-01 07:15N 30°46' E 122°36'0 0.0
2015-Jun-30 17:21N 30°47' E 122°36'0 0.1
2015-Jun-30 15:27N 30°47' E 122°36'0 0.1
2015-Jun-30 14:27N 30°47' E 122°36'0 0.0
2015-Jun-29 20:31N 30°47' E 122°36'  

Dump ship's entire track history